sensor_id;sensor_type;location;lat;lon;timestamp;P1;durP1;ratioP1;P2;durP2;ratioP2
31402;SDS011;18039;52.188;21.024;2022-09-20T00:01:20;24.98;;;15.20;;
31402;SDS011;18039;52.188;21.024;2022-09-20T00:03:53;26.85;;;15.38;;
31402;SDS011;18039;52.188;21.024;2022-09-20T00:06:28;24.23;;;14.85;;
31402;SDS011;18039;52.188;21.024;2022-09-20T00:08:57;28.27;;;15.98;;
31402;SDS011;18039;52.188;21.024;2022-09-20T00:11:26;25.50;;;15.63;;
31402;SDS011;18039;52.188;21.024;2022-09-20T00:13:56;26.00;;;15.35;;
31402;SDS011;18039;52.188;21.024;2022-09-20T00:16:26;26.33;;;14.68;;
31402;SDS011;18039;52.188;21.024;2022-09-20T00:18:56;24.63;;;15.13;;
31402;SDS011;18039;52.188;21.024;2022-09-20T00:21:25;24.02;;;14.77;;
31402;SDS011;18039;52.188;21.024;2022-09-20T00:23:54;25.00;;;14.73;;
31402;SDS011;18039;52.188;21.024;2022-09-20T00:26:23;21.67;;;13.13;;
31402;SDS011;18039;52.188;21.024;2022-09-20T00:28:51;25.23;;;15.55;;
31402;SDS011;18039;52.188;21.024;2022-09-20T00:31:18;25.08;;;14.77;;
31402;SDS011;18039;52.188;21.024;2022-09-20T00:33:46;23.20;;;14.18;;
31402;SDS011;18039;52.188;21.024;2022-09-20T00:36:32;27.70;;;15.23;;
31402;SDS011;18039;52.188;21.024;2022-09-20T00:38:59;24.08;;;14.68;;
31402;SDS011;18039;52.188;21.024;2022-09-20T00:41:28;23.65;;;15.18;;
31402;SDS011;18039;52.188;21.024;2022-09-20T00:43:55;29.92;;;14.93;;
31402;SDS011;18039;52.188;21.024;2022-09-20T00:49:05;23.52;;;13.93;;
31402;SDS011;18039;52.188;21.024;2022-09-20T00:51:42;24.02;;;14.80;;
31402;SDS011;18039;52.188;21.024;2022-09-20T00:54:13;25.77;;;15.82;;
31402;SDS011;18039;52.188;21.024;2022-09-20T00:56:46;28.73;;;15.90;;
31402;SDS011;18039;52.188;21.024;2022-09-20T00:59:21;26.80;;;15.93;;
31402;SDS011;18039;52.188;21.024;2022-09-20T01:01:55;33.38;;;15.30;;
31402;SDS011;18039;52.188;21.024;2022-09-20T01:04:28;27.70;;;16.65;;
31402;SDS011;18039;52.188;21.024;2022-09-20T01:06:57;29.33;;;15.18;;
31402;SDS011;18039;52.188;21.024;2022-09-20T01:09:27;24.73;;;14.75;;
31402;SDS011;18039;52.188;21.024;2022-09-20T01:11:55;25.10;;;15.10;;
31402;SDS011;18039;52.188;21.024;2022-09-20T01:14:24;28.55;;;15.85;;
31402;SDS011;18039;52.188;21.024;2022-09-20T01:16:52;25.13;;;14.80;;
31402;SDS011;18039;52.188;21.024;2022-09-20T01:22:17;24.67;;;13.57;;
31402;SDS011;18039;52.188;21.024;2022-09-20T01:27:43;23.88;;;14.05;;
31402;SDS011;18039;52.188;21.024;2022-09-20T01:30:18;25.90;;;15.07;;
31402;SDS011;18039;52.188;21.024;2022-09-20T01:33:19;29.42;;;16.48;;
31402;SDS011;18039;52.188;21.024;2022-09-20T01:35:55;29.60;;;15.55;;
31402;SDS011;18039;52.188;21.024;2022-09-20T01:41:40;27.27;;;15.57;;
31402;SDS011;18039;52.188;21.024;2022-09-20T01:44:39;25.95;;;14.10;;
31402;SDS011;18039;52.188;21.024;2022-09-20T02:07:31;22.55;;;13.27;;
31402;SDS011;18039;52.188;21.024;2022-09-20T02:13:13;27.80;;;15.27;;
31402;SDS011;18039;52.188;21.024;2022-09-20T02:24:09;27.38;;;14.52;;
31402;SDS011;18039;52.188;21.024;2022-09-20T02:37:50;27.02;;;15.40;;
31402;SDS011;18039;52.188;21.024;2022-09-20T02:43:09;26.35;;;15.57;;
31402;SDS011;18039;52.188;21.024;2022-09-20T02:46:02;24.63;;;14.10;;
31402;SDS011;18039;52.188;21.024;2022-09-20T02:49:08;29.77;;;15.90;;
31402;SDS011;18039;52.188;21.024;2022-09-20T02:51:57;28.48;;;13.82;;
31402;SDS011;18039;52.188;21.024;2022-09-20T02:57:31;28.40;;;15.75;;
31402;SDS011;18039;52.188;21.024;2022-09-20T03:09:02;26.80;;;15.38;;
31402;SDS011;18039;52.188;21.024;2022-09-20T03:14:17;26.38;;;15.30;;
31402;SDS011;18039;52.188;21.024;2022-09-20T03:22:17;29.52;;;16.38;;
31402;SDS011;18039;52.188;21.024;2022-09-20T03:33:12;28.20;;;14.65;;
31402;SDS011;18039;52.188;21.024;2022-09-20T03:50:21;23.63;;;15.02;;
31402;SDS011;18039;52.188;21.024;2022-09-20T04:04:11;20.40;;;13.52;;
31402;SDS011;18039;52.188;21.024;2022-09-20T04:21:56;19.42;;;12.07;;
31402;SDS011;18039;52.188;21.024;2022-09-20T04:26:59;20.02;;;13.13;;
31402;SDS011;18039;52.188;21.024;2022-09-20T04:29:42;20.23;;;12.98;;
31402;SDS011;18039;52.188;21.024;2022-09-20T04:32:18;22.20;;;13.25;;
31402;SDS011;18039;52.188;21.024;2022-09-20T04:38:07;19.80;;;13.07;;
31402;SDS011;18039;52.188;21.024;2022-09-20T04:52:31;21.60;;;13.07;;
31402;SDS011;18039;52.188;21.024;2022-09-20T04:58:11;23.77;;;14.15;;
31402;SDS011;18039;52.188;21.024;2022-09-20T05:21:10;20.17;;;12.77;;
31402;SDS011;18039;52.188;21.024;2022-09-20T05:29:32;22.48;;;13.60;;
31402;SDS011;18039;52.188;21.024;2022-09-20T05:32:22;20.17;;;12.90;;
31402;SDS011;18039;52.188;21.024;2022-09-20T05:41:20;21.27;;;12.13;;
31402;SDS011;18039;52.188;21.024;2022-09-20T05:46:48;19.10;;;11.88;;
31402;SDS011;18039;52.188;21.024;2022-09-20T05:57:38;20.13;;;11.85;;
31402;SDS011;18039;52.188;21.024;2022-09-20T06:00:18;16.75;;;10.93;;
31402;SDS011;18039;52.188;21.024;2022-09-20T06:08:47;19.70;;;10.40;;
31402;SDS011;18039;52.188;21.024;2022-09-20T06:17:15;23.02;;;12.48;;
31402;SDS011;18039;52.188;21.024;2022-09-20T06:22:40;21.40;;;12.57;;
31402;SDS011;18039;52.188;21.024;2022-09-20T06:25:18;20.30;;;11.77;;
31402;SDS011;18039;52.188;21.024;2022-09-20T06:27:54;20.83;;;11.85;;
31402;SDS011;18039;52.188;21.024;2022-09-20T06:30:30;19.17;;;12.40;;
31402;SDS011;18039;52.188;21.024;2022-09-20T06:35:41;20.60;;;12.38;;
31402;SDS011;18039;52.188;21.024;2022-09-20T06:38:25;19.50;;;12.70;;
31402;SDS011;18039;52.188;21.024;2022-09-20T06:41:12;22.08;;;12.82;;
31402;SDS011;18039;52.188;21.024;2022-09-20T06:43:57;20.23;;;12.65;;
31402;SDS011;18039;52.188;21.024;2022-09-20T06:46:30;22.85;;;12.40;;
31402;SDS011;18039;52.188;21.024;2022-09-20T06:48:58;22.58;;;13.13;;
31402;SDS011;18039;52.188;21.024;2022-09-20T06:51:26;20.92;;;12.07;;
31402;SDS011;18039;52.188;21.024;2022-09-20T06:53:55;21.05;;;13.23;;
31402;SDS011;18039;52.188;21.024;2022-09-20T06:56:24;22.13;;;12.68;;
31402;SDS011;18039;52.188;21.024;2022-09-20T06:58:53;24.15;;;12.80;;
31402;SDS011;18039;52.188;21.024;2022-09-20T07:01:21;21.33;;;13.52;;
31402;SDS011;18039;52.188;21.024;2022-09-20T07:03:56;20.52;;;13.43;;
31402;SDS011;18039;52.188;21.024;2022-09-20T07:06:24;23.20;;;13.07;;
31402;SDS011;18039;52.188;21.024;2022-09-20T07:08:52;20.83;;;12.68;;
31402;SDS011;18039;52.188;21.024;2022-09-20T07:11:19;18.88;;;12.30;;
31402;SDS011;18039;52.188;21.024;2022-09-20T07:13:51;22.02;;;12.10;;
31402;SDS011;18039;52.188;21.024;2022-09-20T07:16:20;21.83;;;11.63;;
31402;SDS011;18039;52.188;21.024;2022-09-20T07:18:48;24.60;;;12.40;;
31402;SDS011;18039;52.188;21.024;2022-09-20T07:21:18;17.30;;;11.18;;
31402;SDS011;18039;52.188;21.024;2022-09-20T07:23:46;24.38;;;13.57;;
31402;SDS011;18039;52.188;21.024;2022-09-20T07:26:21;20.25;;;12.80;;
31402;SDS011;18039;52.188;21.024;2022-09-20T07:28:51;22.63;;;13.73;;
31402;SDS011;18039;52.188;21.024;2022-09-20T07:31:19;23.27;;;13.40;;
31402;SDS011;18039;52.188;21.024;2022-09-20T07:33:48;22.70;;;13.25;;
31402;SDS011;18039;52.188;21.024;2022-09-20T07:36:16;19.10;;;11.82;;
31402;SDS011;18039;52.188;21.024;2022-09-20T07:38:47;20.52;;;12.45;;
31402;SDS011;18039;52.188;21.024;2022-09-20T07:41:16;18.63;;;12.73;;
31402;SDS011;18039;52.188;21.024;2022-09-20T07:43:48;32.05;;;13.20;;
31402;SDS011;18039;52.188;21.024;2022-09-20T07:46:16;23.20;;;12.75;;
31402;SDS011;18039;52.188;21.024;2022-09-20T07:48:43;20.42;;;12.80;;
31402;SDS011;18039;52.188;21.024;2022-09-20T07:51:11;20.42;;;12.60;;
31402;SDS011;18039;52.188;21.024;2022-09-20T07:53:39;22.90;;;13.65;;
31402;SDS011;18039;52.188;21.024;2022-09-20T07:56:11;22.65;;;13.68;;
31402;SDS011;18039;52.188;21.024;2022-09-20T07:58:40;18.95;;;11.00;;
31402;SDS011;18039;52.188;21.024;2022-09-20T08:01:09;19.95;;;11.90;;
31402;SDS011;18039;52.188;21.024;2022-09-20T08:03:39;20.42;;;12.45;;
31402;SDS011;18039;52.188;21.024;2022-09-20T08:06:10;21.85;;;12.75;;
31402;SDS011;18039;52.188;21.024;2022-09-20T08:08:40;23.50;;;12.75;;
31402;SDS011;18039;52.188;21.024;2022-09-20T08:11:09;27.67;;;13.80;;
31402;SDS011;18039;52.188;21.024;2022-09-20T08:13:47;19.63;;;12.75;;
31402;SDS011;18039;52.188;21.024;2022-09-20T08:16:37;25.33;;;11.98;;
31402;SDS011;18039;52.188;21.024;2022-09-20T08:19:06;25.15;;;12.43;;
31402;SDS011;18039;52.188;21.024;2022-09-20T08:21:33;19.02;;;12.45;;
31402;SDS011;18039;52.188;21.024;2022-09-20T08:24:01;18.75;;;11.60;;
31402;SDS011;18039;52.188;21.024;2022-09-20T08:26:29;20.20;;;13.02;;
31402;SDS011;18039;52.188;21.024;2022-09-20T08:28:57;17.05;;;11.43;;
31402;SDS011;18039;52.188;21.024;2022-09-20T08:31:26;19.50;;;12.55;;
31402;SDS011;18039;52.188;21.024;2022-09-20T08:33:57;19.42;;;12.00;;
31402;SDS011;18039;52.188;21.024;2022-09-20T08:36:25;20.63;;;11.13;;
31402;SDS011;18039;52.188;21.024;2022-09-20T08:38:52;16.02;;;11.32;;
31402;SDS011;18039;52.188;21.024;2022-09-20T08:44:17;16.52;;;11.43;;
31402;SDS011;18039;52.188;21.024;2022-09-20T08:47:05;16.90;;;11.90;;
31402;SDS011;18039;52.188;21.024;2022-09-20T08:49:33;18.20;;;11.75;;
31402;SDS011;18039;52.188;21.024;2022-09-20T08:52:01;19.52;;;12.75;;
31402;SDS011;18039;52.188;21.024;2022-09-20T08:54:29;22.58;;;13.80;;
31402;SDS011;18039;52.188;21.024;2022-09-20T08:57:02;19.77;;;13.30;;
31402;SDS011;18039;52.188;21.024;2022-09-20T08:59:35;20.15;;;13.00;;
31402;SDS011;18039;52.188;21.024;2022-09-20T09:02:02;20.77;;;12.75;;
31402;SDS011;18039;52.188;21.024;2022-09-20T09:04:34;19.30;;;12.68;;
31402;SDS011;18039;52.188;21.024;2022-09-20T09:07:02;19.27;;;12.50;;
31402;SDS011;18039;52.188;21.024;2022-09-20T09:09:37;20.23;;;13.70;;
31402;SDS011;18039;52.188;21.024;2022-09-20T09:12:18;19.67;;;13.68;;
31402;SDS011;18039;52.188;21.024;2022-09-20T09:17:29;24.27;;;14.30;;
31402;SDS011;18039;52.188;21.024;2022-09-20T09:23:04;19.55;;;13.25;;
31402;SDS011;18039;52.188;21.024;2022-09-20T09:25:35;22.08;;;13.95;;
31402;SDS011;18039;52.188;21.024;2022-09-20T09:30:35;24.17;;;15.63;;
31402;SDS011;18039;52.188;21.024;2022-09-20T09:36:21;21.98;;;15.48;;
31402;SDS011;18039;52.188;21.024;2022-09-20T09:39:12;22.85;;;15.35;;
31402;SDS011;18039;52.188;21.024;2022-09-20T09:41:42;25.33;;;16.02;;
31402;SDS011;18039;52.188;21.024;2022-09-20T09:46:46;22.27;;;16.77;;
31402;SDS011;18039;52.188;21.024;2022-09-20T09:54:32;26.77;;;16.67;;
31402;SDS011;18039;52.188;21.024;2022-09-20T10:05:09;24.08;;;17.05;;
31402;SDS011;18039;52.188;21.024;2022-09-20T10:16:17;20.05;;;15.38;;
31402;SDS011;18039;52.188;21.024;2022-09-20T10:22:07;20.27;;;13.48;;
31402;SDS011;18039;52.188;21.024;2022-09-20T10:30:07;19.73;;;13.65;;
31402;SDS011;18039;52.188;21.024;2022-09-20T10:32:43;19.00;;;13.13;;
31402;SDS011;18039;52.188;21.024;2022-09-20T10:35:24;17.77;;;12.85;;
31402;SDS011;18039;52.188;21.024;2022-09-20T10:43:55;23.15;;;14.60;;
31402;SDS011;18039;52.188;21.024;2022-09-20T10:46:57;23.30;;;14.85;;
31402;SDS011;18039;52.188;21.024;2022-09-20T10:52:16;15.95;;;12.27;;
31402;SDS011;18039;52.188;21.024;2022-09-20T10:55:07;16.35;;;13.25;;
31402;SDS011;18039;52.188;21.024;2022-09-20T11:06:24;16.83;;;12.52;;
31402;SDS011;18039;52.188;21.024;2022-09-20T11:08:56;19.60;;;12.95;;
31402;SDS011;18039;52.188;21.024;2022-09-20T11:11:29;15.05;;;12.98;;
31402;SDS011;18039;52.188;21.024;2022-09-20T11:14:19;16.00;;;12.18;;
31402;SDS011;18039;52.188;21.024;2022-09-20T11:16:55;16.52;;;11.38;;
31402;SDS011;18039;52.188;21.024;2022-09-20T11:19:30;16.30;;;10.15;;
31402;SDS011;18039;52.188;21.024;2022-09-20T11:22:24;18.25;;;10.13;;
31402;SDS011;18039;52.188;21.024;2022-09-20T11:25:05;15.18;;;9.40;;
31402;SDS011;18039;52.188;21.024;2022-09-20T11:27:54;11.18;;;9.07;;
31402;SDS011;18039;52.188;21.024;2022-09-20T11:30:24;9.15;;;7.93;;
31402;SDS011;18039;52.188;21.024;2022-09-20T11:33:16;9.75;;;8.75;;
31402;SDS011;18039;52.188;21.024;2022-09-20T11:35:52;10.82;;;8.60;;
31402;SDS011;18039;52.188;21.024;2022-09-20T11:38:25;10.60;;;8.35;;
31402;SDS011;18039;52.188;21.024;2022-09-20T11:40:58;10.27;;;7.35;;
31402;SDS011;18039;52.188;21.024;2022-09-20T11:43:33;10.93;;;7.90;;
31402;SDS011;18039;52.188;21.024;2022-09-20T11:46:03;11.35;;;8.27;;
31402;SDS011;18039;52.188;21.024;2022-09-20T11:48:53;11.43;;;7.47;;
31402;SDS011;18039;52.188;21.024;2022-09-20T11:56:49;8.05;;;5.97;;
31402;SDS011;18039;52.188;21.024;2022-09-20T12:02:04;6.18;;;5.18;;
31402;SDS011;18039;52.188;21.024;2022-09-20T12:04:46;10.70;;;5.00;;
31402;SDS011;18039;52.188;21.024;2022-09-20T12:07:25;6.32;;;4.28;;
31402;SDS011;18039;52.188;21.024;2022-09-20T12:10:06;10.75;;;6.03;;
31402;SDS011;18039;52.188;21.024;2022-09-20T12:13:02;5.07;;;3.90;;
31402;SDS011;18039;52.188;21.024;2022-09-20T12:15:35;7.07;;;4.85;;
31402;SDS011;18039;52.188;21.024;2022-09-20T12:28:48;8.25;;;4.55;;
31402;SDS011;18039;52.188;21.024;2022-09-20T12:36:39;8.32;;;3.45;;
31402;SDS011;18039;52.188;21.024;2022-09-20T12:39:14;4.82;;;3.70;;
31402;SDS011;18039;52.188;21.024;2022-09-20T12:41:51;4.20;;;3.70;;
31402;SDS011;18039;52.188;21.024;2022-09-20T12:44:37;5.00;;;3.83;;
31402;SDS011;18039;52.188;21.024;2022-09-20T12:47:20;5.90;;;3.20;;
31402;SDS011;18039;52.188;21.024;2022-09-20T12:49:50;5.03;;;3.30;;
31402;SDS011;18039;52.188;21.024;2022-09-20T12:52:46;3.42;;;3.13;;
31402;SDS011;18039;52.188;21.024;2022-09-20T12:55:40;6.75;;;3.38;;
31402;SDS011;18039;52.188;21.024;2022-09-20T13:00:45;5.77;;;4.00;;
31402;SDS011;18039;52.188;21.024;2022-09-20T13:05:45;3.40;;;2.85;;
31402;SDS011;18039;52.188;21.024;2022-09-20T13:08:14;7.22;;;3.40;;
31402;SDS011;18039;52.188;21.024;2022-09-20T13:10:59;3.55;;;2.92;;
31402;SDS011;18039;52.188;21.024;2022-09-20T13:21:49;5.00;;;3.20;;
31402;SDS011;18039;52.188;21.024;2022-09-20T13:24:21;4.93;;;3.55;;
31402;SDS011;18039;52.188;21.024;2022-09-20T13:26:51;4.30;;;2.58;;
31402;SDS011;18039;52.188;21.024;2022-09-20T13:29:33;4.43;;;3.22;;
31402;SDS011;18039;52.188;21.024;2022-09-20T13:32:25;4.25;;;2.45;;
31402;SDS011;18039;52.188;21.024;2022-09-20T13:37:36;5.90;;;2.75;;
31402;SDS011;18039;52.188;21.024;2022-09-20T13:43:00;6.63;;;3.35;;
31402;SDS011;18039;52.188;21.024;2022-09-20T13:45:50;4.55;;;2.80;;
31402;SDS011;18039;52.188;21.024;2022-09-20T13:48:26;3.30;;;3.00;;
31402;SDS011;18039;52.188;21.024;2022-09-20T13:50:54;4.38;;;3.58;;
31402;SDS011;18039;52.188;21.024;2022-09-20T13:53:23;5.40;;;4.18;;
31402;SDS011;18039;52.188;21.024;2022-09-20T13:56:09;6.53;;;4.85;;
31402;SDS011;18039;52.188;21.024;2022-09-20T13:58:55;7.47;;;4.78;;
31402;SDS011;18039;52.188;21.024;2022-09-20T14:04:06;7.85;;;4.85;;
31402;SDS011;18039;52.188;21.024;2022-09-20T14:06:39;5.90;;;2.88;;
31402;SDS011;18039;52.188;21.024;2022-09-20T14:09:25;4.68;;;3.38;;
31402;SDS011;18039;52.188;21.024;2022-09-20T14:11:55;5.07;;;3.45;;
31402;SDS011;18039;52.188;21.024;2022-09-20T14:14:24;10.85;;;5.22;;
31402;SDS011;18039;52.188;21.024;2022-09-20T14:16:53;3.97;;;2.90;;
31402;SDS011;18039;52.188;21.024;2022-09-20T14:19:24;7.18;;;3.75;;
31402;SDS011;18039;52.188;21.024;2022-09-20T14:22:03;4.18;;;2.65;;
31402;SDS011;18039;52.188;21.024;2022-09-20T14:24:32;5.97;;;3.40;;
31402;SDS011;18039;52.188;21.024;2022-09-20T14:27:11;5.82;;;3.45;;
31402;SDS011;18039;52.188;21.024;2022-09-20T14:29:49;6.00;;;3.78;;
31402;SDS011;18039;52.188;21.024;2022-09-20T14:34:51;11.93;;;6.35;;
31402;SDS011;18039;52.188;21.024;2022-09-20T14:40:02;24.40;;;9.88;;
31402;SDS011;18039;52.188;21.024;2022-09-20T14:42:41;16.00;;;7.32;;
31402;SDS011;18039;52.188;21.024;2022-09-20T14:45:21;27.65;;;9.40;;
31402;SDS011;18039;52.188;21.024;2022-09-20T14:47:53;28.13;;;10.20;;
31402;SDS011;18039;52.188;21.024;2022-09-20T14:50:32;25.77;;;10.27;;
31402;SDS011;18039;52.188;21.024;2022-09-20T14:55:32;25.70;;;12.88;;
31402;SDS011;18039;52.188;21.024;2022-09-20T14:58:05;15.90;;;8.50;;
31402;SDS011;18039;52.188;21.024;2022-09-20T15:00:55;15.70;;;8.25;;
31402;SDS011;18039;52.188;21.024;2022-09-20T15:03:29;22.13;;;10.55;;
31402;SDS011;18039;52.188;21.024;2022-09-20T15:05:56;11.75;;;7.05;;
31402;SDS011;18039;52.188;21.024;2022-09-20T15:08:23;8.43;;;6.10;;
31402;SDS011;18039;52.188;21.024;2022-09-20T15:10:51;11.82;;;5.25;;
31402;SDS011;18039;52.188;21.024;2022-09-20T15:13:18;6.43;;;4.90;;
31402;SDS011;18039;52.188;21.024;2022-09-20T15:15:47;7.60;;;4.60;;
31402;SDS011;18039;52.188;21.024;2022-09-20T15:18:18;7.82;;;4.70;;
31402;SDS011;18039;52.188;21.024;2022-09-20T15:20:49;5.10;;;3.40;;
31402;SDS011;18039;52.188;21.024;2022-09-20T15:23:17;6.15;;;3.65;;
31402;SDS011;18039;52.188;21.024;2022-09-20T15:25:44;5.90;;;2.85;;
31402;SDS011;18039;52.188;21.024;2022-09-20T15:28:12;5.47;;;3.75;;
31402;SDS011;18039;52.188;21.024;2022-09-20T15:30:45;5.75;;;3.70;;
31402;SDS011;18039;52.188;21.024;2022-09-20T15:33:16;4.63;;;3.22;;
31402;SDS011;18039;52.188;21.024;2022-09-20T15:35:44;3.03;;;2.30;;
31402;SDS011;18039;52.188;21.024;2022-09-20T15:38:12;3.38;;;2.30;;
31402;SDS011;18039;52.188;21.024;2022-09-20T15:40:40;2.88;;;2.03;;
31402;SDS011;18039;52.188;21.024;2022-09-20T15:43:08;2.25;;;1.58;;
31402;SDS011;18039;52.188;21.024;2022-09-20T15:46:15;2.42;;;1.65;;
31402;SDS011;18039;52.188;21.024;2022-09-20T15:48:48;4.90;;;2.25;;
31402;SDS011;18039;52.188;21.024;2022-09-20T15:51:15;7.63;;;2.53;;
31402;SDS011;18039;52.188;21.024;2022-09-20T15:53:45;4.38;;;2.25;;
31402;SDS011;18039;52.188;21.024;2022-09-20T15:56:21;2.65;;;1.92;;
31402;SDS011;18039;52.188;21.024;2022-09-20T15:58:58;3.45;;;2.13;;
31402;SDS011;18039;52.188;21.024;2022-09-20T16:01:28;1.95;;;1.35;;
31402;SDS011;18039;52.188;21.024;2022-09-20T16:04:06;4.30;;;1.52;;
31402;SDS011;18039;52.188;21.024;2022-09-20T16:06:38;2.05;;;1.30;;
31402;SDS011;18039;52.188;21.024;2022-09-20T16:09:08;4.78;;;1.40;;
31402;SDS011;18039;52.188;21.024;2022-09-20T16:11:35;4.05;;;1.80;;
31402;SDS011;18039;52.188;21.024;2022-09-20T16:14:04;2.72;;;1.60;;
31402;SDS011;18039;52.188;21.024;2022-09-20T16:16:32;6.03;;;1.55;;
31402;SDS011;18039;52.188;21.024;2022-09-20T16:19:07;4.28;;;1.50;;
31402;SDS011;18039;52.188;21.024;2022-09-20T16:21:56;5.17;;;1.80;;
31402;SDS011;18039;52.188;21.024;2022-09-20T16:24:26;2.33;;;1.20;;
31402;SDS011;18039;52.188;21.024;2022-09-20T16:26:55;4.13;;;1.67;;
31402;SDS011;18039;52.188;21.024;2022-09-20T16:29:24;3.15;;;1.73;;
31402;SDS011;18039;52.188;21.024;2022-09-20T16:31:52;4.65;;;1.83;;
31402;SDS011;18039;52.188;21.024;2022-09-20T16:36:54;7.82;;;2.05;;
31402;SDS011;18039;52.188;21.024;2022-09-20T16:39:26;2.80;;;1.73;;
31402;SDS011;18039;52.188;21.024;2022-09-20T16:41:57;4.53;;;2.38;;
31402;SDS011;18039;52.188;21.024;2022-09-20T16:44:33;3.58;;;2.17;;
31402;SDS011;18039;52.188;21.024;2022-09-20T16:47:02;3.38;;;2.35;;
31402;SDS011;18039;52.188;21.024;2022-09-20T16:49:34;2.55;;;1.85;;
31402;SDS011;18039;52.188;21.024;2022-09-20T16:52:03;4.00;;;2.83;;
31402;SDS011;18039;52.188;21.024;2022-09-20T16:54:31;7.03;;;3.83;;
31402;SDS011;18039;52.188;21.024;2022-09-20T16:57:00;5.63;;;3.03;;
31402;SDS011;18039;52.188;21.024;2022-09-20T16:59:27;4.30;;;3.53;;
31402;SDS011;18039;52.188;21.024;2022-09-20T17:01:55;5.38;;;3.72;;
31402;SDS011;18039;52.188;21.024;2022-09-20T17:04:22;7.43;;;4.10;;
31402;SDS011;18039;52.188;21.024;2022-09-20T17:06:49;5.28;;;3.85;;
31402;SDS011;18039;52.188;21.024;2022-09-20T17:09:17;4.95;;;3.20;;
31402;SDS011;18039;52.188;21.024;2022-09-20T17:11:46;7.60;;;4.03;;
31402;SDS011;18039;52.188;21.024;2022-09-20T17:14:17;7.45;;;3.42;;
31402;SDS011;18039;52.188;21.024;2022-09-20T17:16:46;6.57;;;5.30;;
31402;SDS011;18039;52.188;21.024;2022-09-20T17:19:15;7.25;;;4.93;;
31402;SDS011;18039;52.188;21.024;2022-09-20T17:21:47;8.50;;;6.43;;
31402;SDS011;18039;52.188;21.024;2022-09-20T17:24:20;8.30;;;6.47;;
31402;SDS011;18039;52.188;21.024;2022-09-20T17:26:49;9.57;;;5.32;;
31402;SDS011;18039;52.188;21.024;2022-09-20T17:29:17;6.93;;;3.28;;
31402;SDS011;18039;52.188;21.024;2022-09-20T17:31:46;5.65;;;3.08;;
31402;SDS011;18039;52.188;21.024;2022-09-20T17:34:20;3.70;;;2.67;;
31402;SDS011;18039;52.188;21.024;2022-09-20T17:36:48;3.45;;;2.33;;
31402;SDS011;18039;52.188;21.024;2022-09-20T17:39:16;7.05;;;2.50;;
31402;SDS011;18039;52.188;21.024;2022-09-20T17:41:45;7.85;;;2.58;;
31402;SDS011;18039;52.188;21.024;2022-09-20T17:44:13;3.50;;;2.35;;
31402;SDS011;18039;52.188;21.024;2022-09-20T17:46:42;4.88;;;2.28;;
31402;SDS011;18039;52.188;21.024;2022-09-20T17:49:11;7.70;;;2.30;;
31402;SDS011;18039;52.188;21.024;2022-09-20T17:51:41;3.55;;;2.20;;
31402;SDS011;18039;52.188;21.024;2022-09-20T17:54:10;3.05;;;2.13;;
31402;SDS011;18039;52.188;21.024;2022-09-20T17:56:42;4.18;;;2.40;;
31402;SDS011;18039;52.188;21.024;2022-09-20T17:59:11;3.58;;;1.95;;
31402;SDS011;18039;52.188;21.024;2022-09-20T18:01:42;3.10;;;2.20;;
31402;SDS011;18039;52.188;21.024;2022-09-20T18:04:11;3.78;;;2.28;;
31402;SDS011;18039;52.188;21.024;2022-09-20T18:06:45;6.07;;;2.28;;
31402;SDS011;18039;52.188;21.024;2022-09-20T18:09:15;7.10;;;2.72;;
31402;SDS011;18039;52.188;21.024;2022-09-20T18:11:44;6.32;;;2.10;;
31402;SDS011;18039;52.188;21.024;2022-09-20T18:14:17;7.10;;;2.72;;
31402;SDS011;18039;52.188;21.024;2022-09-20T18:16:53;5.88;;;2.92;;
31402;SDS011;18039;52.188;21.024;2022-09-20T18:19:23;7.40;;;3.08;;
31402;SDS011;18039;52.188;21.024;2022-09-20T18:21:57;7.03;;;3.63;;
31402;SDS011;18039;52.188;21.024;2022-09-20T18:24:25;7.30;;;4.10;;
31402;SDS011;18039;52.188;21.024;2022-09-20T18:26:52;7.53;;;4.05;;
31402;SDS011;18039;52.188;21.024;2022-09-20T18:29:19;21.23;;;5.35;;
31402;SDS011;18039;52.188;21.024;2022-09-20T18:31:47;9.85;;;4.70;;
31402;SDS011;18039;52.188;21.024;2022-09-20T18:34:21;8.57;;;5.00;;
31402;SDS011;18039;52.188;21.024;2022-09-20T18:36:50;8.30;;;4.85;;
31402;SDS011;18039;52.188;21.024;2022-09-20T18:39:25;9.05;;;5.70;;
31402;SDS011;18039;52.188;21.024;2022-09-20T18:41:54;10.18;;;5.80;;
31402;SDS011;18039;52.188;21.024;2022-09-20T18:44:21;9.95;;;5.43;;
31402;SDS011;18039;52.188;21.024;2022-09-20T18:46:49;9.40;;;5.60;;
31402;SDS011;18039;52.188;21.024;2022-09-20T18:49:19;10.07;;;5.95;;
31402;SDS011;18039;52.188;21.024;2022-09-20T18:51:48;9.98;;;6.18;;
31402;SDS011;18039;52.188;21.024;2022-09-20T18:54:16;11.60;;;6.05;;
31402;SDS011;18039;52.188;21.024;2022-09-20T18:56:44;11.20;;;6.85;;
31402;SDS011;18039;52.188;21.024;2022-09-20T18:59:23;11.98;;;7.20;;
31402;SDS011;18039;52.188;21.024;2022-09-20T19:26:48;12.20;;;7.88;;
31402;SDS011;18039;52.188;21.024;2022-09-20T19:29:21;14.25;;;8.43;;
31402;SDS011;18039;52.188;21.024;2022-09-20T19:31:52;13.07;;;8.15;;
31402;SDS011;18039;52.188;21.024;2022-09-20T19:34:24;12.23;;;8.30;;
31402;SDS011;18039;52.188;21.024;2022-09-20T19:37:01;11.82;;;7.93;;
31402;SDS011;18039;52.188;21.024;2022-09-20T19:42:38;16.60;;;8.75;;
31402;SDS011;18039;52.188;21.024;2022-09-20T19:48:20;15.85;;;8.85;;
31402;SDS011;18039;52.188;21.024;2022-09-20T19:51:01;13.37;;;8.67;;
31402;SDS011;18039;52.188;21.024;2022-09-20T19:53:30;9.30;;;6.28;;
31402;SDS011;18039;52.188;21.024;2022-09-20T19:56:00;12.63;;;7.80;;
31402;SDS011;18039;52.188;21.024;2022-09-20T19:58:33;11.98;;;7.47;;
31402;SDS011;18039;52.188;21.024;2022-09-20T20:01:01;10.80;;;6.95;;
31402;SDS011;18039;52.188;21.024;2022-09-20T20:03:28;10.93;;;7.00;;
31402;SDS011;18039;52.188;21.024;2022-09-20T20:06:00;10.18;;;7.07;;
31402;SDS011;18039;52.188;21.024;2022-09-20T20:08:39;8.50;;;6.20;;
31402;SDS011;18039;52.188;21.024;2022-09-20T20:12:02;9.68;;;5.82;;
31402;SDS011;18039;52.188;21.024;2022-09-20T20:28:20;9.25;;;5.40;;
31402;SDS011;18039;52.188;21.024;2022-09-20T20:30:47;10.32;;;5.80;;
31402;SDS011;18039;52.188;21.024;2022-09-20T20:33:14;12.77;;;6.38;;
31402;SDS011;18039;52.188;21.024;2022-09-20T20:35:42;13.63;;;6.80;;
31402;SDS011;18039;52.188;21.024;2022-09-20T20:38:09;16.50;;;8.63;;
31402;SDS011;18039;52.188;21.024;2022-09-20T20:40:37;14.77;;;7.47;;
31402;SDS011;18039;52.188;21.024;2022-09-20T20:43:06;14.27;;;7.28;;
31402;SDS011;18039;52.188;21.024;2022-09-20T20:45:34;11.40;;;7.18;;
31402;SDS011;18039;52.188;21.024;2022-09-20T20:48:01;13.73;;;7.95;;
31402;SDS011;18039;52.188;21.024;2022-09-20T20:50:28;10.77;;;7.03;;
31402;SDS011;18039;52.188;21.024;2022-09-20T20:52:56;11.30;;;6.90;;
31402;SDS011;18039;52.188;21.024;2022-09-20T20:55:23;12.50;;;6.80;;
31402;SDS011;18039;52.188;21.024;2022-09-20T20:57:51;9.77;;;6.47;;
31402;SDS011;18039;52.188;21.024;2022-09-20T21:00:24;13.75;;;6.32;;
31402;SDS011;18039;52.188;21.024;2022-09-20T21:02:58;11.73;;;5.53;;
31402;SDS011;18039;52.188;21.024;2022-09-20T21:05:26;10.65;;;6.40;;
31402;SDS011;18039;52.188;21.024;2022-09-20T21:07:54;11.75;;;6.75;;
31402;SDS011;18039;52.188;21.024;2022-09-20T21:10:23;10.43;;;6.22;;